createdAt,value
2017-09-19T00:00:11.409Z,9.70
2017-09-19T00:02:37.604Z,9.67
2017-09-19T00:05:03.869Z,10.77
2017-09-19T00:07:30.097Z,9.90
2017-09-19T00:09:56.724Z,9.90
2017-09-19T00:12:23.148Z,9.43
2017-09-19T00:14:49.397Z,11.30
2017-09-19T00:17:15.865Z,9.00
2017-09-19T00:19:43.446Z,9.40
2017-09-19T00:22:09.639Z,10.50
2017-09-19T00:24:35.951Z,9.23
2017-09-19T00:27:02.374Z,11.10
2017-09-19T00:29:28.556Z,9.20
2017-09-19T00:31:54.749Z,9.97
2017-09-19T00:34:21.033Z,9.80
2017-09-19T00:36:47.281Z,9.27
2017-09-19T00:39:13.509Z,10.80
2017-09-19T00:41:39.757Z,8.40
2017-09-19T00:44:05.973Z,11.50
2017-09-19T00:46:32.282Z,9.90
2017-09-19T00:48:58.801Z,9.67
2017-09-19T00:51:25.070Z,9.70
2017-09-19T00:53:51.307Z,10.07
2017-09-19T00:56:17.560Z,9.70
2017-09-19T00:58:43.776Z,9.60
2017-09-19T01:01:10.031Z,10.03
2017-09-19T01:03:36.288Z,10.53
2017-09-19T01:06:02.515Z,10.90
2017-09-19T01:08:28.709Z,10.40
2017-09-19T01:10:54.982Z,9.67
2017-09-19T01:13:21.545Z,9.57
2017-09-19T01:15:48.164Z,9.50
2017-09-19T01:18:14.825Z,9.37
2017-09-19T01:20:41.255Z,9.13
2017-09-19T01:23:07.862Z,9.83
2017-09-19T01:25:34.531Z,10.87
2017-09-19T01:28:00.743Z,9.03
2017-09-19T01:30:26.960Z,9.30
2017-09-19T01:32:53.229Z,9.53
2017-09-19T01:35:19.634Z,9.30
2017-09-19T01:37:45.874Z,9.93
2017-09-19T01:40:12.310Z,10.73
2017-09-19T01:42:38.694Z,10.93
2017-09-19T01:45:05.140Z,10.80
2017-09-19T01:47:31.817Z,9.93
2017-09-19T01:49:58.250Z,10.23
2017-09-19T01:52:24.476Z,10.60
2017-09-19T01:54:50.959Z,10.13
2017-09-19T01:57:17.395Z,11.27
2017-09-19T01:59:43.777Z,10.60
2017-09-19T02:02:10.384Z,10.27
2017-09-19T02:04:36.803Z,10.90
2017-09-19T02:07:03.279Z,10.17
2017-09-19T02:09:29.916Z,9.70
2017-09-19T02:11:56.144Z,10.10
2017-09-19T02:14:22.376Z,9.50
2017-09-19T02:16:48.805Z,9.60
2017-09-19T02:19:15.060Z,10.87
2017-09-19T02:21:41.269Z,9.60
2017-09-19T02:24:07.533Z,11.47
2017-09-19T02:26:33.729Z,9.93
2017-09-19T02:28:59.944Z,10.87
2017-09-19T02:31:26.209Z,10.00
2017-09-19T02:33:52.423Z,10.63
2017-09-19T02:36:18.650Z,10.10
2017-09-19T02:38:44.928Z,10.30
2017-09-19T02:41:11.141Z,10.17
2017-09-19T02:43:37.324Z,11.53
2017-09-19T02:46:03.581Z,11.13
2017-09-19T02:48:29.783Z,11.00
2017-09-19T02:50:56.010Z,10.63
2017-09-19T02:53:22.282Z,10.70
2017-09-19T02:55:48.487Z,11.80
2017-09-19T02:58:14.708Z,10.63
2017-09-19T03:00:40.973Z,11.73
2017-09-19T03:03:07.204Z,10.93
2017-09-19T03:05:33.414Z,10.80
2017-09-19T03:07:59.674Z,10.80
2017-09-19T03:10:26.043Z,11.13
2017-09-19T03:12:52.271Z,12.07
2017-09-19T03:15:18.734Z,11.27
2017-09-19T03:17:44.945Z,10.07
2017-09-19T03:20:11.170Z,10.13
2017-09-19T03:22:37.448Z,10.10
2017-09-19T03:25:03.668Z,9.40
2017-09-19T03:27:29.899Z,9.60
2017-09-19T03:29:56.184Z,11.37
2017-09-19T03:32:22.492Z,9.27
2017-09-19T03:34:48.696Z,11.20
2017-09-19T03:37:14.973Z,11.53
2017-09-19T03:39:41.176Z,12.50
2017-09-19T03:42:07.392Z,11.13
2017-09-19T03:44:33.671Z,10.27
2017-09-19T03:46:59.884Z,11.50
2017-09-19T03:49:26.110Z,11.47
2017-09-19T03:51:52.388Z,10.90
2017-09-19T03:54:18.620Z,10.90
2017-09-19T03:56:44.833Z,10.13
2017-09-19T03:59:11.106Z,11.00
2017-09-19T04:01:37.336Z,10.83
2017-09-19T04:04:03.555Z,11.43
2017-09-19T04:06:29.834Z,11.90
2017-09-19T04:08:56.067Z,10.67
2017-09-19T04:11:22.283Z,12.57
2017-09-19T04:13:48.540Z,10.33
2017-09-19T04:16:14.749Z,10.73
2017-09-19T04:18:40.953Z,10.77
2017-09-19T04:21:07.233Z,11.93
2017-09-19T04:23:33.425Z,10.40
2017-09-19T04:25:59.627Z,11.10
2017-09-19T04:28:25.907Z,10.50
2017-09-19T04:30:52.124Z,11.03
2017-09-19T04:33:18.335Z,9.07
2017-09-19T04:35:44.593Z,10.27
2017-09-19T04:38:10.786Z,10.33
2017-09-19T04:40:37.007Z,8.93
2017-09-19T04:43:03.244Z,9.03
2017-09-19T04:45:29.482Z,10.53
2017-09-19T04:47:55.702Z,9.23
2017-09-19T04:50:21.956Z,11.03
2017-09-19T04:52:48.166Z,8.13
2017-09-19T04:55:14.398Z,8.70
2017-09-19T04:57:40.681Z,10.13
2017-09-19T05:00:06.908Z,9.50
2017-09-19T05:02:33.134Z,8.10
2017-09-19T05:04:59.404Z,9.30
2017-09-19T05:07:25.617Z,9.17
2017-09-19T05:09:51.847Z,8.90
2017-09-19T05:12:18.171Z,9.00
2017-09-19T05:14:44.389Z,9.57
2017-09-19T05:17:10.627Z,10.00
2017-09-19T05:19:36.900Z,8.33
2017-09-19T05:22:03.113Z,8.50
2017-09-19T05:24:29.331Z,9.07
2017-09-19T05:26:55.631Z,9.30
2017-09-19T05:29:21.864Z,7.77
2017-09-19T05:31:48.091Z,8.87
2017-09-19T05:34:14.450Z,7.90
2017-09-19T05:36:40.671Z,9.70
2017-09-19T05:39:06.894Z,8.60
2017-09-19T05:41:33.184Z,7.80
2017-09-19T05:43:59.391Z,8.40
2017-09-19T05:46:25.610Z,8.17
2017-09-19T05:48:51.899Z,9.50
2017-09-19T05:51:18.128Z,11.60
2017-09-19T05:53:44.360Z,13.20
2017-09-19T05:56:10.640Z,14.77
2017-09-19T05:58:36.853Z,12.33
2017-09-19T06:01:03.086Z,13.10
2017-09-19T06:03:29.371Z,12.20
2017-09-19T06:05:55.596Z,14.30
2017-09-19T06:08:21.804Z,14.27
2017-09-19T06:10:48.096Z,12.87
2017-09-19T06:13:14.309Z,13.73
2017-09-19T06:15:40.517Z,12.37
2017-09-19T06:18:06.800Z,12.90
2017-09-19T06:20:33.027Z,14.60
2017-09-19T06:22:59.245Z,16.17
2017-09-19T06:25:25.531Z,12.80
2017-09-19T06:27:51.864Z,10.73
2017-09-19T06:30:18.080Z,12.67
2017-09-19T06:32:44.303Z,12.50
2017-09-19T06:35:10.533Z,10.90
2017-09-19T06:37:36.736Z,7.77
2017-09-19T06:40:02.972Z,6.60
2017-09-19T06:42:29.190Z,6.73
2017-09-19T06:44:55.398Z,6.40
2017-09-19T06:47:21.628Z,6.07
2017-09-19T06:49:47.843Z,7.00
2017-09-19T06:52:14.071Z,6.23
2017-09-19T06:54:40.351Z,8.77
2017-09-19T06:57:06.564Z,6.70
2017-09-19T06:59:32.787Z,8.03
2017-09-19T07:01:59.062Z,5.83
2017-09-19T07:04:25.290Z,7.70
2017-09-19T07:06:51.510Z,6.70
2017-09-19T07:09:17.778Z,7.57
2017-09-19T07:11:44.001Z,7.80
2017-09-19T07:14:10.228Z,6.87
2017-09-19T07:16:36.494Z,6.50
2017-09-19T07:19:02.732Z,6.47
2017-09-19T07:21:28.949Z,7.13
2017-09-19T07:23:55.209Z,5.90
2017-09-19T07:26:21.434Z,4.50
2017-09-19T07:28:47.662Z,5.77
2017-09-19T07:31:13.945Z,6.40
2017-09-19T07:33:40.242Z,7.57
2017-09-19T07:36:06.447Z,7.70
2017-09-19T07:38:32.720Z,10.10
2017-09-19T07:40:58.948Z,9.40
2017-09-19T07:43:25.162Z,8.40
2017-09-19T07:45:51.431Z,11.50
2017-09-19T07:48:17.666Z,13.07
2017-09-19T07:50:44.062Z,9.13
2017-09-19T07:53:10.327Z,9.60
2017-09-19T07:55:36.558Z,10.87
2017-09-19T07:58:02.774Z,9.10
2017-09-19T08:00:29.070Z,10.37
2017-09-19T08:02:55.296Z,8.17
2017-09-19T08:05:21.522Z,8.40
2017-09-19T08:07:47.804Z,7.73
2017-09-19T08:10:14.017Z,7.00
2017-09-19T08:12:40.240Z,7.47
2017-09-19T08:15:06.532Z,6.67
2017-09-19T08:17:32.737Z,6.73
2017-09-19T08:19:58.960Z,5.50
2017-09-19T08:22:25.247Z,7.00
2017-09-19T08:24:51.476Z,6.07
2017-09-19T08:27:17.693Z,6.50
2017-09-19T08:29:43.976Z,5.23
2017-09-19T08:32:10.188Z,5.27
2017-09-19T08:34:36.402Z,6.40
2017-09-19T08:37:02.680Z,5.73
2017-09-19T08:39:28.892Z,6.37
2017-09-19T08:41:55.107Z,5.33
2017-09-19T08:44:21.388Z,6.37
2017-09-19T08:46:47.628Z,6.03
2017-09-19T08:49:13.938Z,6.40
2017-09-19T08:51:40.222Z,5.37
2017-09-19T08:54:06.450Z,6.10
2017-09-19T08:56:32.665Z,6.10
2017-09-19T08:58:58.955Z,6.30
2017-09-19T09:01:25.302Z,5.77
2017-09-19T09:03:51.531Z,9.60
2017-09-19T09:06:17.798Z,6.50
2017-09-19T09:08:44.020Z,7.60
2017-09-19T09:11:10.420Z,7.33
2017-09-19T09:13:36.685Z,7.72
2017-09-19T09:16:02.890Z,8.00
2017-09-19T09:18:29.115Z,8.73
2017-09-19T09:20:55.380Z,6.93
2017-09-19T09:23:21.595Z,8.05
2017-09-19T09:25:47.822Z,8.27
2017-09-19T09:28:14.104Z,7.57
2017-09-19T09:30:40.336Z,6.45
2017-09-19T09:33:06.564Z,6.35
2017-09-19T09:35:32.829Z,6.30
2017-09-19T09:37:59.020Z,7.50
2017-09-19T09:40:25.235Z,8.32
2017-09-19T09:42:51.523Z,7.10
2017-09-19T09:45:17.733Z,6.93
2017-09-19T09:47:43.954Z,6.65
2017-09-19T09:50:10.222Z,8.45
2017-09-19T09:52:36.452Z,7.82
2017-09-19T09:55:02.669Z,7.07
2017-09-19T09:57:28.944Z,6.70
2017-09-19T09:59:55.157Z,7.68
2017-09-19T10:02:21.383Z,6.90
2017-09-19T10:04:47.653Z,5.82
2017-09-19T10:07:13.869Z,7.00
2017-09-19T10:09:40.081Z,7.03
2017-09-19T10:12:06.356Z,5.82
2017-09-19T10:14:32.562Z,5.85
2017-09-19T10:16:58.770Z,6.00
2017-09-19T10:19:25.048Z,6.62
2017-09-19T10:21:51.258Z,6.62
2017-09-19T10:24:17.480Z,6.75
2017-09-19T10:26:43.757Z,6.25
2017-09-19T10:29:09.983Z,6.50
2017-09-19T10:31:36.212Z,6.22
2017-09-19T10:34:02.481Z,6.32
2017-09-19T10:36:28.681Z,6.35
2017-09-19T10:38:54.892Z,6.95
2017-09-19T10:41:21.169Z,6.30
2017-09-19T10:43:47.482Z,6.65
2017-09-19T10:46:13.705Z,6.57
2017-09-19T10:48:39.969Z,7.87
2017-09-19T10:51:06.212Z,7.97
2017-09-19T10:53:32.447Z,8.27
2017-09-19T10:55:58.715Z,7.62
2017-09-19T10:58:24.923Z,6.07
2017-09-19T11:00:51.129Z,6.32
2017-09-19T11:03:17.393Z,7.35
2017-09-19T11:05:43.624Z,7.03
2017-09-19T11:08:09.842Z,8.23
2017-09-19T11:10:36.109Z,7.55
2017-09-19T11:13:02.459Z,7.87
2017-09-19T11:15:28.669Z,7.30
2017-09-19T11:17:54.924Z,5.90
2017-09-19T11:20:21.132Z,7.72
2017-09-19T11:22:47.355Z,7.85
2017-09-19T11:25:13.642Z,6.22
2017-09-19T11:27:39.853Z,7.47
2017-09-19T11:30:06.076Z,7.75
2017-09-19T11:32:32.341Z,7.68
2017-09-19T11:34:58.549Z,7.40
2017-09-19T11:37:24.769Z,7.40
2017-09-19T11:39:51.052Z,7.37
2017-09-19T11:42:17.270Z,7.05
2017-09-19T11:44:43.488Z,7.95
2017-09-19T11:47:09.780Z,8.27
2017-09-19T11:49:36.003Z,8.18
2017-09-19T11:52:02.306Z,8.25
2017-09-19T11:54:28.568Z,8.18
2017-09-19T11:56:54.784Z,8.82
2017-09-19T11:59:20.997Z,8.93
2017-09-19T12:01:47.266Z,9.13
2017-09-19T12:04:14.382Z,9.10
2017-09-19T12:06:40.597Z,8.65
2017-09-19T12:09:06.898Z,9.35
2017-09-19T12:11:33.114Z,7.72
2017-09-19T12:13:59.320Z,9.80
2017-09-19T12:16:25.824Z,8.95
2017-09-19T12:18:52.037Z,9.98
2017-09-19T12:21:18.250Z,7.82
2017-09-19T12:23:44.540Z,8.88
2017-09-19T12:26:10.758Z,8.15
2017-09-19T12:28:36.973Z,8.63
2017-09-19T12:31:03.265Z,8.60
2017-09-19T12:33:29.486Z,8.77
2017-09-19T12:35:55.708Z,9.73
2017-09-19T12:38:22.015Z,9.10
2017-09-19T12:40:48.229Z,10.38
2017-09-19T12:43:14.528Z,9.50
2017-09-19T12:45:40.796Z,9.77
2017-09-19T12:48:07.002Z,9.43
2017-09-19T12:50:33.225Z,9.80
2017-09-19T12:52:59.502Z,9.13
2017-09-19T12:55:25.729Z,9.68
2017-09-19T12:57:51.945Z,8.68
2017-09-19T13:00:18.220Z,8.82
2017-09-19T13:02:44.428Z,10.45
2017-09-19T13:05:10.664Z,10.15
2017-09-19T13:07:36.955Z,10.57
2017-09-19T13:10:03.186Z,10.73
2017-09-19T13:12:29.419Z,10.30
2017-09-19T13:14:55.724Z,9.98
2017-09-19T13:17:21.963Z,10.80
2017-09-19T13:19:48.198Z,10.85
2017-09-19T13:22:16.321Z,11.18
2017-09-19T13:24:43.712Z,10.13
2017-09-19T13:27:10.456Z,9.63
2017-09-19T13:29:37.346Z,11.00
2017-09-19T13:32:05.608Z,11.73
2017-09-19T13:34:32.311Z,12.33
2017-09-19T13:36:58.696Z,12.13
2017-09-19T13:39:24.958Z,12.10
2017-09-19T13:41:51.169Z,14.63
2017-09-19T13:44:17.452Z,13.23
2017-09-19T13:46:43.677Z,13.80
2017-09-19T13:49:09.907Z,14.10
2017-09-19T13:51:36.187Z,13.13
2017-09-19T13:54:02.469Z,12.23
2017-09-19T13:56:28.685Z,12.07
2017-09-19T13:58:54.967Z,11.73
2017-09-19T14:01:21.190Z,13.00
2017-09-19T14:03:47.415Z,13.40
2017-09-19T14:06:13.741Z,13.23
2017-09-19T14:08:39.957Z,13.80
2017-09-19T14:11:06.176Z,12.10
2017-09-19T14:13:32.451Z,12.60
2017-09-19T14:15:58.684Z,11.67
2017-09-19T14:18:25.040Z,14.03
2017-09-19T14:20:51.325Z,13.20
2017-09-19T14:23:17.558Z,12.83
2017-09-19T14:25:43.764Z,11.50
2017-09-19T14:28:10.055Z,13.60
2017-09-19T14:30:36.288Z,12.73
2017-09-19T14:33:02.512Z,12.67
2017-09-19T14:35:28.781Z,13.83
2017-09-19T14:37:54.979Z,10.73
2017-09-19T14:40:21.192Z,13.90
2017-09-19T14:42:47.509Z,12.97
2017-09-19T14:45:13.725Z,14.00
2017-09-19T14:47:39.945Z,13.77
2017-09-19T14:50:06.220Z,12.70
2017-09-19T14:52:32.441Z,13.97
2017-09-19T14:54:58.649Z,16.80
2017-09-19T14:57:24.921Z,14.93
2017-09-19T14:59:51.128Z,15.87
2017-09-19T15:02:17.345Z,13.33
2017-09-19T15:04:43.619Z,15.40
2017-09-19T15:07:09.814Z,12.80
2017-09-19T15:09:36.035Z,12.20
2017-09-19T15:12:02.310Z,12.50
2017-09-19T15:14:28.504Z,13.00
2017-09-19T15:16:54.731Z,14.23
2017-09-19T15:19:21.006Z,15.50
2017-09-19T15:21:47.385Z,12.23
2017-09-19T15:24:13.623Z,12.03
2017-09-19T15:26:39.901Z,14.07
2017-09-19T15:29:06.217Z,13.43
2017-09-19T15:31:32.436Z,12.60
2017-09-19T15:33:58.735Z,13.70
2017-09-19T15:36:24.950Z,14.30
2017-09-19T15:38:51.179Z,12.70
2017-09-19T15:41:17.446Z,14.20
2017-09-19T15:43:43.661Z,13.17
2017-09-19T15:46:09.877Z,15.13
2017-09-19T15:48:36.197Z,13.97
2017-09-19T15:51:02.415Z,16.27
2017-09-19T15:53:28.640Z,14.37
2017-09-19T15:55:54.995Z,13.83
2017-09-19T15:58:21.227Z,16.47
2017-09-19T16:00:47.460Z,14.50
2017-09-19T16:03:13.740Z,15.80
2017-09-19T16:05:40.111Z,14.03
2017-09-19T16:08:06.342Z,14.10
2017-09-19T16:10:32.632Z,14.83
2017-09-19T16:12:58.861Z,14.17
2017-09-19T16:15:25.088Z,14.67
2017-09-19T16:17:51.465Z,16.80
2017-09-19T16:20:17.695Z,16.10
2017-09-19T16:22:43.932Z,16.57
2017-09-19T16:25:10.212Z,18.17
2017-09-19T16:27:36.442Z,16.63
2017-09-19T16:30:02.653Z,17.80
2017-09-19T16:32:29.032Z,19.00
2017-09-19T16:34:55.245Z,15.10
2017-09-19T16:37:21.461Z,14.07
2017-09-19T16:39:47.726Z,16.90
2017-09-19T16:42:13.946Z,15.77
2017-09-19T16:44:40.179Z,16.77
2017-09-19T16:47:06.454Z,15.40
2017-09-19T16:49:32.679Z,16.63
2017-09-19T16:51:58.899Z,16.33
2017-09-19T16:54:25.162Z,18.73
2017-09-19T16:56:51.361Z,19.07
2017-09-19T16:59:17.578Z,21.77
2017-09-19T17:01:43.859Z,23.27
2017-09-19T17:04:10.061Z,21.20
2017-09-19T17:06:36.301Z,19.20
2017-09-19T17:09:02.577Z,23.23
2017-09-19T17:11:28.802Z,19.10
2017-09-19T17:13:55.037Z,21.90
2017-09-19T17:16:21.324Z,17.00
2017-09-19T17:18:47.537Z,21.47
2017-09-19T17:21:13.743Z,19.57
2017-09-19T17:23:40.021Z,20.47
2017-09-19T17:26:06.260Z,23.03
2017-09-19T17:28:32.478Z,22.93
2017-09-19T17:30:58.745Z,21.00
2017-09-19T17:33:24.976Z,31.07
2017-09-19T17:35:51.212Z,20.97
2017-09-19T17:38:17.486Z,20.00
2017-09-19T17:40:43.706Z,20.00
2017-09-19T17:43:09.920Z,21.40
2017-09-19T17:45:36.192Z,18.23
2017-09-19T17:48:02.423Z,21.33
2017-09-19T17:50:28.668Z,17.77
2017-09-19T17:52:54.965Z,18.97
2017-09-19T17:55:21.195Z,18.30
2017-09-19T17:57:47.421Z,16.30
2017-09-19T18:00:13.756Z,16.50
2017-09-19T18:02:40.050Z,16.67
2017-09-19T18:05:06.293Z,18.57
2017-09-19T18:07:32.565Z,20.27
2017-09-19T18:09:58.793Z,19.83
2017-09-19T18:12:25.022Z,17.90
2017-09-19T18:14:51.301Z,18.17
2017-09-19T18:17:17.497Z,17.00
2017-09-19T18:19:43.753Z,21.93
2017-09-19T18:22:10.064Z,22.90
2017-09-19T18:24:36.296Z,20.60
2017-09-19T18:27:02.514Z,19.57
2017-09-19T18:29:28.792Z,22.73
2017-09-19T18:31:55.007Z,20.53
2017-09-19T18:34:21.217Z,21.50
2017-09-19T18:36:47.507Z,21.00
2017-09-19T18:39:13.766Z,21.60
2017-09-19T18:41:40.014Z,22.87
2017-09-19T18:44:06.310Z,21.13
2017-09-19T18:46:32.540Z,24.27
2017-09-19T18:48:58.836Z,21.43
2017-09-19T18:51:25.120Z,23.33
2017-09-19T18:53:51.358Z,23.60
2017-09-19T18:56:17.606Z,22.40
2017-09-19T18:58:43.881Z,24.20
2017-09-19T19:01:10.104Z,26.40
2017-09-19T19:03:36.351Z,25.40
2017-09-19T19:06:02.649Z,22.73
2017-09-19T19:08:28.867Z,22.30
2017-09-19T19:10:55.092Z,22.87
2017-09-19T19:13:21.354Z,21.70
2017-09-19T19:15:47.572Z,20.73
2017-09-19T19:18:13.802Z,21.80
2017-09-19T19:20:40.088Z,22.70
2017-09-19T19:23:06.297Z,23.10
2017-09-19T19:25:32.513Z,21.97
2017-09-19T19:27:58.785Z,21.47
2017-09-19T19:30:24.994Z,20.67
2017-09-19T19:32:51.202Z,23.13
2017-09-19T19:35:17.583Z,24.10
2017-09-19T19:37:43.799Z,25.67
2017-09-19T19:40:10.047Z,24.40
2017-09-19T19:42:36.329Z,23.07
2017-09-19T19:45:02.554Z,21.30
2017-09-19T19:47:28.785Z,22.80
2017-09-19T19:49:55.068Z,25.80
2017-09-19T19:52:21.292Z,24.10
2017-09-19T19:54:47.510Z,24.40
2017-09-19T19:57:13.787Z,24.90
2017-09-19T19:59:40.016Z,24.27
2017-09-19T20:02:06.261Z,27.17
2017-09-19T20:04:32.563Z,24.53
2017-09-19T20:06:58.801Z,23.60
2017-09-19T20:09:25.031Z,23.77
2017-09-19T20:11:51.303Z,24.63
2017-09-19T20:14:17.499Z,23.33
2017-09-19T20:16:43.731Z,26.30
2017-09-19T20:19:10.032Z,24.87
2017-09-19T20:21:36.245Z,27.40
2017-09-19T20:24:02.450Z,27.90
2017-09-19T20:26:28.741Z,25.47
2017-09-19T20:28:54.973Z,28.73
2017-09-19T20:31:21.199Z,27.77
2017-09-19T20:33:47.467Z,27.00
2017-09-19T20:36:13.674Z,25.50
2017-09-19T20:38:39.956Z,32.77
2017-09-19T20:41:06.221Z,28.63
2017-09-19T20:43:32.439Z,28.50
2017-09-19T20:45:58.674Z,29.97
2017-09-19T20:48:24.956Z,27.37
2017-09-19T20:50:51.162Z,28.40
2017-09-19T20:53:17.504Z,27.10
2017-09-19T20:55:43.785Z,31.00
2017-09-19T20:58:10.005Z,27.63
2017-09-19T21:00:36.374Z,28.40
2017-09-19T21:03:02.671Z,29.53
2017-09-19T21:05:28.899Z,28.50
2017-09-19T21:07:55.115Z,28.27
2017-09-19T21:10:21.406Z,31.53
2017-09-19T21:12:47.627Z,29.70
2017-09-19T21:15:13.840Z,28.07
2017-09-19T21:17:40.129Z,28.53
2017-09-19T21:20:06.457Z,29.13
2017-09-19T21:22:32.670Z,27.50
2017-09-19T21:24:58.902Z,31.23
2017-09-19T21:27:25.108Z,30.70
2017-09-19T21:29:51.393Z,31.50
2017-09-19T21:32:17.678Z,33.37
2017-09-19T21:34:43.910Z,28.33
2017-09-19T21:37:10.274Z,33.90
2017-09-19T21:39:36.691Z,31.13
2017-09-19T21:42:02.931Z,30.53
2017-09-19T21:44:29.213Z,31.37
2017-09-19T21:46:55.451Z,31.43
2017-09-19T21:49:21.680Z,30.47
2017-09-19T21:51:47.932Z,37.40
2017-09-19T21:54:14.125Z,33.47
2017-09-19T21:56:40.353Z,31.93
2017-09-19T21:59:06.724Z,31.77
2017-09-19T22:01:32.948Z,29.63
2017-09-19T22:03:59.168Z,34.60
2017-09-19T22:06:25.453Z,34.90
2017-09-19T22:08:51.678Z,32.73
2017-09-19T22:11:17.898Z,30.80
2017-09-19T22:13:44.161Z,30.53
2017-09-19T22:16:10.509Z,32.87
2017-09-19T22:18:36.756Z,29.47
2017-09-19T22:21:03.020Z,29.57
2017-09-19T22:23:29.253Z,32.37
2017-09-19T22:25:55.493Z,34.20
2017-09-19T22:28:21.769Z,32.67
2017-09-19T22:30:48.005Z,31.90
2017-09-19T22:33:14.336Z,32.27
2017-09-19T22:35:40.646Z,32.17
2017-09-19T22:38:06.891Z,35.00
2017-09-19T22:40:33.114Z,32.60
2017-09-19T22:42:59.433Z,35.50
2017-09-19T22:45:25.656Z,31.10
2017-09-19T22:47:51.874Z,31.37
2017-09-19T22:50:18.136Z,34.83
2017-09-19T22:52:44.372Z,34.30
2017-09-19T22:55:10.607Z,33.77
2017-09-19T22:57:37.029Z,34.47
2017-09-19T23:00:03.253Z,35.10
2017-09-19T23:02:29.502Z,32.60
2017-09-19T23:04:55.787Z,34.50
2017-09-19T23:07:22.028Z,34.37
2017-09-19T23:09:48.264Z,33.37
2017-09-19T23:12:14.534Z,32.67
2017-09-19T23:14:40.767Z,31.67
2017-09-19T23:17:07.002Z,32.67
2017-09-19T23:19:33.277Z,30.53
2017-09-19T23:21:59.500Z,30.90
2017-09-19T23:24:25.731Z,32.17
2017-09-19T23:26:52.023Z,30.83
2017-09-19T23:29:18.246Z,33.97
2017-09-19T23:31:44.478Z,35.93
2017-09-19T23:34:10.764Z,36.23
2017-09-19T23:36:36.989Z,34.70
2017-09-19T23:39:03.227Z,37.60
2017-09-19T23:41:29.513Z,36.50
2017-09-19T23:43:55.745Z,36.87
2017-09-19T23:46:21.980Z,36.87
2017-09-19T23:48:48.259Z,36.43
2017-09-19T23:51:14.490Z,36.50
2017-09-19T23:53:40.708Z,37.37
2017-09-19T23:56:06.996Z,39.00
2017-09-19T23:58:33.219Z,35.70
